sensor_id;sensor_type;location;lat;lon;timestamp;P1;durP1;ratioP1;P2;durP2;ratioP2
23617;SDS011;18207;32.078;34.818;2023-03-04T00:01:20;7.10;;;6.40;;
23617;SDS011;18207;32.078;34.818;2023-03-04T00:03:51;7.32;;;6.63;;
23617;SDS011;18207;32.078;34.818;2023-03-04T00:06:22;6.97;;;6.32;;
23617;SDS011;18207;32.078;34.818;2023-03-04T00:08:53;7.25;;;6.55;;
23617;SDS011;18207;32.078;34.818;2023-03-04T00:11:26;7.15;;;6.50;;
23617;SDS011;18207;32.078;34.818;2023-03-04T00:13:56;7.25;;;6.63;;
23617;SDS011;18207;32.078;34.818;2023-03-04T00:16:27;7.25;;;6.63;;
23617;SDS011;18207;32.078;34.818;2023-03-04T00:18:57;7.28;;;6.57;;
23617;SDS011;18207;32.078;34.818;2023-03-04T00:21:28;7.00;;;6.40;;
23617;SDS011;18207;32.078;34.818;2023-03-04T00:23:58;7.32;;;6.72;;
23617;SDS011;18207;32.078;34.818;2023-03-04T00:26:30;7.57;;;6.88;;
23617;SDS011;18207;32.078;34.818;2023-03-04T00:29:02;6.75;;;6.15;;
23617;SDS011;18207;32.078;34.818;2023-03-04T00:31:33;7.38;;;6.78;;
23617;SDS011;18207;32.078;34.818;2023-03-04T00:34:04;7.95;;;7.25;;
23617;SDS011;18207;32.078;34.818;2023-03-04T00:36:35;7.22;;;6.63;;
23617;SDS011;18207;32.078;34.818;2023-03-04T00:39:06;7.80;;;7.00;;
23617;SDS011;18207;32.078;34.818;2023-03-04T00:41:38;7.78;;;7.03;;
23617;SDS011;18207;32.078;34.818;2023-03-04T00:44:08;8.25;;;7.45;;
23617;SDS011;18207;32.078;34.818;2023-03-04T00:46:40;7.75;;;7.07;;
23617;SDS011;18207;32.078;34.818;2023-03-04T00:49:10;7.72;;;7.00;;
23617;SDS011;18207;32.078;34.818;2023-03-04T00:51:40;8.07;;;7.35;;
23617;SDS011;18207;32.078;34.818;2023-03-04T00:54:10;7.05;;;6.45;;
23617;SDS011;18207;32.078;34.818;2023-03-04T00:56:43;7.72;;;7.03;;
23617;SDS011;18207;32.078;34.818;2023-03-04T00:59:13;7.82;;;7.10;;
23617;SDS011;18207;32.078;34.818;2023-03-04T01:01:44;7.97;;;7.05;;
23617;SDS011;18207;32.078;34.818;2023-03-04T01:04:14;7.68;;;6.97;;
23617;SDS011;18207;32.078;34.818;2023-03-04T01:06:44;7.93;;;7.13;;
23617;SDS011;18207;32.078;34.818;2023-03-04T01:09:15;7.78;;;6.97;;
23617;SDS011;18207;32.078;34.818;2023-03-04T01:11:49;7.97;;;7.18;;
23617;SDS011;18207;32.078;34.818;2023-03-04T01:14:22;8.43;;;6.97;;
23617;SDS011;18207;32.078;34.818;2023-03-04T01:16:53;7.38;;;6.68;;
23617;SDS011;18207;32.078;34.818;2023-03-04T01:19:24;7.20;;;6.60;;
23617;SDS011;18207;32.078;34.818;2023-03-04T01:21:55;7.25;;;6.55;;
23617;SDS011;18207;32.078;34.818;2023-03-04T01:24:26;7.07;;;6.47;;
23617;SDS011;18207;32.078;34.818;2023-03-04T01:26:58;7.25;;;6.65;;
23617;SDS011;18207;32.078;34.818;2023-03-04T01:29:30;7.63;;;6.93;;
23617;SDS011;18207;32.078;34.818;2023-03-04T01:32:00;7.45;;;6.82;;
23617;SDS011;18207;32.078;34.818;2023-03-04T01:34:31;7.65;;;6.90;;
23617;SDS011;18207;32.078;34.818;2023-03-04T01:37:02;7.18;;;6.60;;
23617;SDS011;18207;32.078;34.818;2023-03-04T01:39:32;7.15;;;6.53;;
23617;SDS011;18207;32.078;34.818;2023-03-04T01:42:08;6.95;;;6.45;;
23617;SDS011;18207;32.078;34.818;2023-03-04T01:44:48;7.18;;;6.30;;
23617;SDS011;18207;32.078;34.818;2023-03-04T01:47:20;7.10;;;6.13;;
23617;SDS011;18207;32.078;34.818;2023-03-04T01:49:55;7.15;;;6.55;;
23617;SDS011;18207;32.078;34.818;2023-03-04T01:52:30;6.88;;;6.30;;
23617;SDS011;18207;32.078;34.818;2023-03-04T01:55:05;7.20;;;6.55;;
23617;SDS011;18207;32.078;34.818;2023-03-04T01:57:47;7.25;;;6.60;;
23617;SDS011;18207;32.078;34.818;2023-03-04T02:00:22;6.43;;;5.88;;
23617;SDS011;18207;32.078;34.818;2023-03-04T02:02:57;7.85;;;7.07;;
23617;SDS011;18207;32.078;34.818;2023-03-04T02:05:34;6.85;;;6.18;;
23617;SDS011;18207;32.078;34.818;2023-03-04T02:08:08;6.82;;;6.20;;
23617;SDS011;18207;32.078;34.818;2023-03-04T02:10:41;6.82;;;6.22;;
23617;SDS011;18207;32.078;34.818;2023-03-04T02:13:15;8.07;;;6.57;;
23617;SDS011;18207;32.078;34.818;2023-03-04T02:15:46;7.03;;;6.22;;
23617;SDS011;18207;32.078;34.818;2023-03-04T02:18:18;6.82;;;6.07;;
23617;SDS011;18207;32.078;34.818;2023-03-04T02:20:53;6.65;;;6.10;;
23617;SDS011;18207;32.078;34.818;2023-03-04T02:23:38;6.38;;;5.80;;
23617;SDS011;18207;32.078;34.818;2023-03-04T02:26:20;6.90;;;6.22;;
23617;SDS011;18207;32.078;34.818;2023-03-04T02:28:51;6.97;;;6.38;;
23617;SDS011;18207;32.078;34.818;2023-03-04T02:31:25;7.13;;;6.50;;
23617;SDS011;18207;32.078;34.818;2023-03-04T02:34:01;6.38;;;5.80;;
23617;SDS011;18207;32.078;34.818;2023-03-04T02:36:35;6.65;;;6.05;;
23617;SDS011;18207;32.078;34.818;2023-03-04T02:39:09;6.85;;;6.25;;
23617;SDS011;18207;32.078;34.818;2023-03-04T02:41:52;6.47;;;5.97;;
23617;SDS011;18207;32.078;34.818;2023-03-04T02:44:24;7.15;;;6.55;;
23617;SDS011;18207;32.078;34.818;2023-03-04T02:46:57;7.13;;;6.43;;
23617;SDS011;18207;32.078;34.818;2023-03-04T02:49:29;7.22;;;6.63;;
23617;SDS011;18207;32.078;34.818;2023-03-04T02:52:02;6.95;;;6.18;;
23617;SDS011;18207;32.078;34.818;2023-03-04T02:54:36;7.13;;;6.43;;
23617;SDS011;18207;32.078;34.818;2023-03-04T02:57:10;7.20;;;6.57;;
23617;SDS011;18207;32.078;34.818;2023-03-04T02:59:43;7.07;;;6.47;;
23617;SDS011;18207;32.078;34.818;2023-03-04T03:02:14;7.25;;;6.55;;
23617;SDS011;18207;32.078;34.818;2023-03-04T03:04:45;7.03;;;6.35;;
23617;SDS011;18207;32.078;34.818;2023-03-04T03:07:16;7.25;;;6.55;;
23617;SDS011;18207;32.078;34.818;2023-03-04T03:09:46;7.53;;;6.85;;
23617;SDS011;18207;32.078;34.818;2023-03-04T03:12:19;8.02;;;7.25;;
23617;SDS011;18207;32.078;34.818;2023-03-04T03:14:49;8.27;;;7.18;;
23617;SDS011;18207;32.078;34.818;2023-03-04T03:17:20;8.00;;;7.25;;
23617;SDS011;18207;32.078;34.818;2023-03-04T03:19:50;7.80;;;7.03;;
23617;SDS011;18207;32.078;34.818;2023-03-04T03:22:21;7.57;;;6.97;;
23617;SDS011;18207;32.078;34.818;2023-03-04T03:24:52;7.35;;;6.75;;
23617;SDS011;18207;32.078;34.818;2023-03-04T03:27:24;7.53;;;6.72;;
23617;SDS011;18207;32.078;34.818;2023-03-04T03:29:55;7.35;;;6.65;;
23617;SDS011;18207;32.078;34.818;2023-03-04T03:32:26;7.53;;;6.82;;
23617;SDS011;18207;32.078;34.818;2023-03-04T03:34:57;7.32;;;6.72;;
23617;SDS011;18207;32.078;34.818;2023-03-04T03:37:28;7.28;;;6.60;;
23617;SDS011;18207;32.078;34.818;2023-03-04T03:39:58;7.25;;;6.55;;
23617;SDS011;18207;32.078;34.818;2023-03-04T03:42:31;7.38;;;6.68;;
23617;SDS011;18207;32.078;34.818;2023-03-04T03:45:02;7.32;;;6.68;;
23617;SDS011;18207;32.078;34.818;2023-03-04T03:47:35;7.30;;;6.60;;
23617;SDS011;18207;32.078;34.818;2023-03-04T03:50:05;7.10;;;6.40;;
23617;SDS011;18207;32.078;34.818;2023-03-04T03:52:37;7.05;;;6.40;;
23617;SDS011;18207;32.078;34.818;2023-03-04T03:55:08;6.93;;;6.15;;
23617;SDS011;18207;32.078;34.818;2023-03-04T03:57:40;7.18;;;6.50;;
23617;SDS011;18207;32.078;34.818;2023-03-04T04:00:11;6.57;;;5.97;;
23617;SDS011;18207;32.078;34.818;2023-03-04T04:02:43;6.70;;;6.15;;
23617;SDS011;18207;32.078;34.818;2023-03-04T04:05:13;6.30;;;5.72;;
23617;SDS011;18207;32.078;34.818;2023-03-04T04:07:44;6.38;;;5.82;;
23617;SDS011;18207;32.078;34.818;2023-03-04T04:10:16;6.32;;;5.82;;
23617;SDS011;18207;32.078;34.818;2023-03-04T04:12:48;6.30;;;5.70;;
23617;SDS011;18207;32.078;34.818;2023-03-04T04:15:18;5.65;;;5.15;;
23617;SDS011;18207;32.078;34.818;2023-03-04T04:17:49;6.70;;;6.10;;
23617;SDS011;18207;32.078;34.818;2023-03-04T04:20:19;6.80;;;6.10;;
23617;SDS011;18207;32.078;34.818;2023-03-04T04:22:51;6.93;;;5.97;;
23617;SDS011;18207;32.078;34.818;2023-03-04T04:25:22;7.20;;;6.50;;
23617;SDS011;18207;32.078;34.818;2023-03-04T04:27:56;8.27;;;6.05;;
23617;SDS011;18207;32.078;34.818;2023-03-04T04:30:27;7.60;;;6.65;;
23617;SDS011;18207;32.078;34.818;2023-03-04T04:32:58;6.95;;;6.35;;
23617;SDS011;18207;32.078;34.818;2023-03-04T04:35:30;6.95;;;6.25;;
23617;SDS011;18207;32.078;34.818;2023-03-04T04:38:02;6.82;;;6.22;;
23617;SDS011;18207;32.078;34.818;2023-03-04T04:40:32;6.20;;;5.60;;
23617;SDS011;18207;32.078;34.818;2023-03-04T04:43:06;6.18;;;5.68;;
23617;SDS011;18207;32.078;34.818;2023-03-04T04:45:36;6.50;;;5.90;;
23617;SDS011;18207;32.078;34.818;2023-03-04T04:48:06;6.32;;;5.72;;
23617;SDS011;18207;32.078;34.818;2023-03-04T04:50:37;6.05;;;5.45;;
23617;SDS011;18207;32.078;34.818;2023-03-04T04:53:09;5.97;;;5.47;;
23617;SDS011;18207;32.078;34.818;2023-03-04T04:55:40;6.20;;;5.60;;
23617;SDS011;18207;32.078;34.818;2023-03-04T04:58:13;5.75;;;5.25;;
23617;SDS011;18207;32.078;34.818;2023-03-04T05:00:43;6.35;;;5.75;;
23617;SDS011;18207;32.078;34.818;2023-03-04T05:03:14;5.57;;;5.07;;
23617;SDS011;18207;32.078;34.818;2023-03-04T05:05:46;6.03;;;5.53;;
23617;SDS011;18207;32.078;34.818;2023-03-04T05:08:18;5.57;;;5.07;;
23617;SDS011;18207;32.078;34.818;2023-03-04T05:10:49;5.65;;;5.15;;
23617;SDS011;18207;32.078;34.818;2023-03-04T05:13:22;5.95;;;5.47;;
23617;SDS011;18207;32.078;34.818;2023-03-04T05:15:54;6.22;;;5.63;;
23617;SDS011;18207;32.078;34.818;2023-03-04T05:18:28;6.75;;;5.82;;
23617;SDS011;18207;32.078;34.818;2023-03-04T05:20:59;5.95;;;5.45;;
23617;SDS011;18207;32.078;34.818;2023-03-04T05:23:32;6.13;;;5.60;;
23617;SDS011;18207;32.078;34.818;2023-03-04T05:26:06;6.32;;;5.72;;
23617;SDS011;18207;32.078;34.818;2023-03-04T05:28:45;6.50;;;5.90;;
23617;SDS011;18207;32.078;34.818;2023-03-04T05:31:15;5.80;;;5.20;;
23617;SDS011;18207;32.078;34.818;2023-03-04T05:33:46;6.60;;;5.40;;
23617;SDS011;18207;32.078;34.818;2023-03-04T05:36:17;6.65;;;5.07;;
23617;SDS011;18207;32.078;34.818;2023-03-04T05:38:49;5.90;;;5.38;;
23617;SDS011;18207;32.078;34.818;2023-03-04T05:41:19;6.57;;;5.97;;
23617;SDS011;18207;32.078;34.818;2023-03-04T05:43:52;6.53;;;5.65;;
23617;SDS011;18207;32.078;34.818;2023-03-04T05:46:22;6.20;;;5.70;;
23617;SDS011;18207;32.078;34.818;2023-03-04T05:48:53;5.78;;;5.28;;
23617;SDS011;18207;32.078;34.818;2023-03-04T05:51:23;6.07;;;5.55;;
23617;SDS011;18207;32.078;34.818;2023-03-04T05:53:53;5.85;;;5.35;;
23617;SDS011;18207;32.078;34.818;2023-03-04T05:56:23;5.75;;;5.25;;
23617;SDS011;18207;32.078;34.818;2023-03-04T05:58:57;5.78;;;5.28;;
23617;SDS011;18207;32.078;34.818;2023-03-04T06:01:28;6.30;;;5.68;;
23617;SDS011;18207;32.078;34.818;2023-03-04T06:03:58;5.75;;;5.25;;
23617;SDS011;18207;32.078;34.818;2023-03-04T06:06:30;5.93;;;5.43;;
23617;SDS011;18207;32.078;34.818;2023-03-04T06:09:00;5.50;;;5.10;;
23617;SDS011;18207;32.078;34.818;2023-03-04T06:11:30;5.88;;;5.38;;
23617;SDS011;18207;32.078;34.818;2023-03-04T06:14:04;6.32;;;5.35;;
23617;SDS011;18207;32.078;34.818;2023-03-04T06:16:34;6.13;;;5.53;;
23617;SDS011;18207;32.078;34.818;2023-03-04T06:19:06;6.43;;;5.82;;
23617;SDS011;18207;32.078;34.818;2023-03-04T06:21:36;6.15;;;5.65;;
23617;SDS011;18207;32.078;34.818;2023-03-04T06:24:06;5.95;;;5.45;;
23617;SDS011;18207;32.078;34.818;2023-03-04T06:26:37;5.72;;;5.22;;
23617;SDS011;18207;32.078;34.818;2023-03-04T06:29:10;6.00;;;5.50;;
23617;SDS011;18207;32.078;34.818;2023-03-04T06:31:41;5.93;;;5.32;;
23617;SDS011;18207;32.078;34.818;2023-03-04T06:34:12;5.72;;;5.22;;
23617;SDS011;18207;32.078;34.818;2023-03-04T06:36:42;5.97;;;5.38;;
23617;SDS011;18207;32.078;34.818;2023-03-04T06:39:13;5.60;;;5.15;;
23617;SDS011;18207;32.078;34.818;2023-03-04T06:41:44;5.70;;;5.20;;
23617;SDS011;18207;32.078;34.818;2023-03-04T06:44:16;5.30;;;4.90;;
23617;SDS011;18207;32.078;34.818;2023-03-04T06:46:52;5.07;;;4.57;;
23617;SDS011;18207;32.078;34.818;2023-03-04T06:49:23;5.93;;;5.38;;
23617;SDS011;18207;32.078;34.818;2023-03-04T06:51:54;5.07;;;4.68;;
23617;SDS011;18207;32.078;34.818;2023-03-04T06:54:25;6.78;;;5.07;;
23617;SDS011;18207;32.078;34.818;2023-03-04T06:56:55;6.07;;;5.47;;
23617;SDS011;18207;32.078;34.818;2023-03-04T06:59:28;5.30;;;4.80;;
23617;SDS011;18207;32.078;34.818;2023-03-04T07:01:59;5.40;;;4.90;;
23617;SDS011;18207;32.078;34.818;2023-03-04T07:04:29;4.93;;;4.53;;
23617;SDS011;18207;32.078;34.818;2023-03-04T07:07:00;5.70;;;5.05;;
23617;SDS011;18207;32.078;34.818;2023-03-04T07:09:31;4.68;;;4.28;;
23617;SDS011;18207;32.078;34.818;2023-03-04T07:12:03;5.05;;;4.63;;
23617;SDS011;18207;32.078;34.818;2023-03-04T07:14:36;5.22;;;4.65;;
23617;SDS011;18207;32.078;34.818;2023-03-04T07:17:07;4.93;;;4.53;;
23617;SDS011;18207;32.078;34.818;2023-03-04T07:19:38;6.13;;;4.45;;
23617;SDS011;18207;32.078;34.818;2023-03-04T07:22:10;4.95;;;4.50;;
23617;SDS011;18207;32.078;34.818;2023-03-04T07:24:40;4.45;;;4.15;;
23617;SDS011;18207;32.078;34.818;2023-03-04T07:27:12;4.75;;;4.35;;
23617;SDS011;18207;32.078;34.818;2023-03-04T07:29:45;4.75;;;4.35;;
23617;SDS011;18207;32.078;34.818;2023-03-04T07:32:16;4.97;;;4.18;;
23617;SDS011;18207;32.078;34.818;2023-03-04T07:34:46;4.68;;;4.35;;
23617;SDS011;18207;32.078;34.818;2023-03-04T07:37:16;5.22;;;4.20;;
23617;SDS011;18207;32.078;34.818;2023-03-04T07:39:48;4.45;;;4.05;;
23617;SDS011;18207;32.078;34.818;2023-03-04T07:42:19;4.90;;;4.43;;
23617;SDS011;18207;32.078;34.818;2023-03-04T07:44:52;4.18;;;3.88;;
23617;SDS011;18207;32.078;34.818;2023-03-04T07:47:23;4.68;;;4.28;;
23617;SDS011;18207;32.078;34.818;2023-03-04T07:49:53;4.50;;;4.10;;
23617;SDS011;18207;32.078;34.818;2023-03-04T07:52:23;4.63;;;4.22;;
23617;SDS011;18207;32.078;34.818;2023-03-04T07:54:54;4.75;;;4.35;;
23617;SDS011;18207;32.078;34.818;2023-03-04T07:57:24;4.85;;;4.38;;
23617;SDS011;18207;32.078;34.818;2023-03-04T07:59:58;4.63;;;4.22;;
23617;SDS011;18207;32.078;34.818;2023-03-04T08:02:29;4.55;;;4.22;;
23617;SDS011;18207;32.078;34.818;2023-03-04T08:05:00;4.88;;;4.38;;
23617;SDS011;18207;32.078;34.818;2023-03-04T08:07:32;4.40;;;4.00;;
23617;SDS011;18207;32.078;34.818;2023-03-04T08:10:03;5.07;;;4.57;;
23617;SDS011;18207;32.078;34.818;2023-03-04T08:12:35;4.55;;;4.15;;
23617;SDS011;18207;32.078;34.818;2023-03-04T08:15:12;4.90;;;4.30;;
23617;SDS011;18207;32.078;34.818;2023-03-04T08:17:45;4.28;;;3.88;;
23617;SDS011;18207;32.078;34.818;2023-03-04T08:20:16;3.88;;;3.58;;
23617;SDS011;18207;32.078;34.818;2023-03-04T08:22:47;4.00;;;3.60;;
23617;SDS011;18207;32.078;34.818;2023-03-04T08:25:17;4.68;;;4.28;;
23617;SDS011;18207;32.078;34.818;2023-03-04T08:27:50;4.80;;;4.40;;
23617;SDS011;18207;32.078;34.818;2023-03-04T08:30:26;5.63;;;4.60;;
23617;SDS011;18207;32.078;34.818;2023-03-04T08:32:57;3.97;;;3.67;;
23617;SDS011;18207;32.078;34.818;2023-03-04T08:35:27;4.22;;;3.92;;
23617;SDS011;18207;32.078;34.818;2023-03-04T08:37:58;3.78;;;3.47;;
23617;SDS011;18207;32.078;34.818;2023-03-04T08:40:29;4.03;;;3.63;;
23617;SDS011;18207;32.078;34.818;2023-03-04T08:43:01;4.18;;;3.88;;
23617;SDS011;18207;32.078;34.818;2023-03-04T08:45:35;4.18;;;3.85;;
23617;SDS011;18207;32.078;34.818;2023-03-04T08:48:06;3.95;;;3.65;;
23617;SDS011;18207;32.078;34.818;2023-03-04T08:50:36;3.70;;;3.40;;
23617;SDS011;18207;32.078;34.818;2023-03-04T08:53:07;3.63;;;3.30;;
23617;SDS011;18207;32.078;34.818;2023-03-04T08:55:38;3.38;;;3.10;;
23617;SDS011;18207;32.078;34.818;2023-03-04T08:58:11;3.47;;;3.17;;
23617;SDS011;18207;32.078;34.818;2023-03-04T09:00:44;3.40;;;3.10;;
23617;SDS011;18207;32.078;34.818;2023-03-04T09:03:18;3.70;;;3.40;;
23617;SDS011;18207;32.078;34.818;2023-03-04T09:05:49;3.42;;;3.13;;
23617;SDS011;18207;32.078;34.818;2023-03-04T09:08:20;3.33;;;3.03;;
23617;SDS011;18207;32.078;34.818;2023-03-04T09:10:51;3.33;;;3.13;;
23617;SDS011;18207;32.078;34.818;2023-03-04T09:13:23;3.10;;;2.90;;
23617;SDS011;18207;32.078;34.818;2023-03-04T09:15:58;2.95;;;2.72;;
23617;SDS011;18207;32.078;34.818;2023-03-04T09:18:30;4.25;;;2.80;;
23617;SDS011;18207;32.078;34.818;2023-03-04T09:21:01;3.20;;;3.00;;
23617;SDS011;18207;32.078;34.818;2023-03-04T09:23:34;3.08;;;2.78;;
23617;SDS011;18207;32.078;34.818;2023-03-04T09:26:18;2.95;;;2.65;;
23617;SDS011;18207;32.078;34.818;2023-03-04T09:29:02;3.05;;;2.75;;
23617;SDS011;18207;32.078;34.818;2023-03-04T09:31:32;3.22;;;3.00;;
23617;SDS011;18207;32.078;34.818;2023-03-04T09:34:03;4.03;;;3.72;;
23617;SDS011;18207;32.078;34.818;2023-03-04T09:36:34;4.40;;;3.95;;
23617;SDS011;18207;32.078;34.818;2023-03-04T09:39:12;4.07;;;3.72;;
23617;SDS011;18207;32.078;34.818;2023-03-04T09:41:45;4.18;;;3.88;;
23617;SDS011;18207;32.078;34.818;2023-03-04T09:44:23;4.22;;;3.88;;
23617;SDS011;18207;32.078;34.818;2023-03-04T09:46:59;4.47;;;3.83;;
23617;SDS011;18207;32.078;34.818;2023-03-04T09:49:34;4.18;;;3.88;;
23617;SDS011;18207;32.078;34.818;2023-03-04T09:52:13;4.43;;;4.03;;
23617;SDS011;18207;32.078;34.818;2023-03-04T09:55:04;4.35;;;4.05;;
23617;SDS011;18207;32.078;34.818;2023-03-04T09:57:50;4.70;;;4.18;;
23617;SDS011;18207;32.078;34.818;2023-03-04T10:00:33;6.38;;;4.25;;
23617;SDS011;18207;32.078;34.818;2023-03-04T10:03:14;4.30;;;3.88;;
23617;SDS011;18207;32.078;34.818;2023-03-04T10:05:49;4.80;;;4.40;;
23617;SDS011;18207;32.078;34.818;2023-03-04T10:08:30;4.78;;;4.28;;
23617;SDS011;18207;32.078;34.818;2023-03-04T10:11:17;4.18;;;3.88;;
23617;SDS011;18207;32.078;34.818;2023-03-04T10:13:55;4.85;;;4.32;;
23617;SDS011;18207;32.078;34.818;2023-03-04T10:16:40;5.32;;;4.82;;
23617;SDS011;18207;32.078;34.818;2023-03-04T10:19:23;4.47;;;4.07;;
23617;SDS011;18207;32.078;34.818;2023-03-04T10:22:16;4.55;;;4.15;;
23617;SDS011;18207;32.078;34.818;2023-03-04T10:24:54;5.03;;;4.57;;
23617;SDS011;18207;32.078;34.818;2023-03-04T10:27:27;4.88;;;4.47;;
23617;SDS011;18207;32.078;34.818;2023-03-04T10:29:59;4.65;;;4.35;;
23617;SDS011;18207;32.078;34.818;2023-03-04T10:32:31;5.03;;;4.63;;
23617;SDS011;18207;32.078;34.818;2023-03-04T10:35:02;4.50;;;4.10;;
23617;SDS011;18207;32.078;34.818;2023-03-04T10:37:44;4.50;;;4.15;;
23617;SDS011;18207;32.078;34.818;2023-03-04T10:40:20;4.90;;;4.45;;
23617;SDS011;18207;32.078;34.818;2023-03-04T10:42:53;4.57;;;4.18;;
23617;SDS011;18207;32.078;34.818;2023-03-04T10:45:36;5.32;;;4.15;;
23617;SDS011;18207;32.078;34.818;2023-03-04T10:48:22;4.78;;;4.38;;
23617;SDS011;18207;32.078;34.818;2023-03-04T10:51:08;4.50;;;4.10;;
23617;SDS011;18207;32.078;34.818;2023-03-04T10:53:55;4.78;;;4.22;;
23617;SDS011;18207;32.078;34.818;2023-03-04T10:56:53;4.43;;;4.03;;
23617;SDS011;18207;32.078;34.818;2023-03-04T10:59:39;6.10;;;4.68;;
23617;SDS011;18207;32.078;34.818;2023-03-04T11:02:23;4.82;;;4.18;;
23617;SDS011;18207;32.078;34.818;2023-03-04T11:07:58;4.47;;;4.07;;
23617;SDS011;18207;32.078;34.818;2023-03-04T11:10:29;4.30;;;4.00;;
23617;SDS011;18207;32.078;34.818;2023-03-04T11:13:15;4.13;;;3.83;;
23617;SDS011;18207;32.078;34.818;2023-03-04T11:15:49;4.30;;;3.90;;
23617;SDS011;18207;32.078;34.818;2023-03-04T11:18:37;4.32;;;3.97;;
23617;SDS011;18207;32.078;34.818;2023-03-04T11:21:16;4.40;;;4.00;;
23617;SDS011;18207;32.078;34.818;2023-03-04T11:23:53;4.15;;;3.85;;
23617;SDS011;18207;32.078;34.818;2023-03-04T11:26:30;5.32;;;4.25;;
23617;SDS011;18207;32.078;34.818;2023-03-04T11:29:10;4.32;;;3.92;;
23617;SDS011;18207;32.078;34.818;2023-03-04T11:31:48;5.65;;;4.00;;
23617;SDS011;18207;32.078;34.818;2023-03-04T11:34:29;4.95;;;4.13;;
23617;SDS011;18207;32.078;34.818;2023-03-04T11:37:20;4.15;;;3.85;;
23617;SDS011;18207;32.078;34.818;2023-03-04T11:40:03;3.97;;;3.58;;
23617;SDS011;18207;32.078;34.818;2023-03-04T11:42:42;4.32;;;4.00;;
23617;SDS011;18207;32.078;34.818;2023-03-04T11:45:27;4.10;;;3.80;;
23617;SDS011;18207;32.078;34.818;2023-03-04T11:48:43;3.85;;;3.55;;
23617;SDS011;18207;32.078;34.818;2023-03-04T11:51:32;4.03;;;3.65;;
23617;SDS011;18207;32.078;34.818;2023-03-04T11:58:24;3.45;;;3.15;;
23617;SDS011;18207;32.078;34.818;2023-03-04T12:01:52;3.53;;;3.22;;
23617;SDS011;18207;32.078;34.818;2023-03-04T12:04:45;3.40;;;3.20;;
23617;SDS011;18207;32.078;34.818;2023-03-04T12:07:57;4.22;;;3.25;;
23617;SDS011;18207;32.078;34.818;2023-03-04T12:11:06;4.50;;;3.50;;
23617;SDS011;18207;32.078;34.818;2023-03-04T12:20:00;3.90;;;3.60;;
23617;SDS011;18207;32.078;34.818;2023-03-04T12:22:57;3.65;;;3.38;;
23617;SDS011;18207;32.078;34.818;2023-03-04T12:25:49;3.15;;;2.95;;
23617;SDS011;18207;32.078;34.818;2023-03-04T12:28:55;3.35;;;3.05;;
23617;SDS011;18207;32.078;34.818;2023-03-04T12:31:44;4.00;;;3.15;;
23617;SDS011;18207;32.078;34.818;2023-03-04T12:34:32;3.65;;;3.35;;
23617;SDS011;18207;32.078;34.818;2023-03-04T12:37:29;4.32;;;3.47;;
23617;SDS011;18207;32.078;34.818;2023-03-04T12:40:31;3.70;;;3.30;;
23617;SDS011;18207;32.078;34.818;2023-03-04T12:43:15;3.90;;;3.60;;
23617;SDS011;18207;32.078;34.818;2023-03-04T12:46:19;3.80;;;3.13;;
23617;SDS011;18207;32.078;34.818;2023-03-04T12:49:28;3.83;;;3.53;;
23617;SDS011;18207;32.078;34.818;2023-03-04T12:52:38;3.72;;;3.42;;
23617;SDS011;18207;32.078;34.818;2023-03-04T12:58:14;3.67;;;3.38;;
23617;SDS011;18207;32.078;34.818;2023-03-04T13:00:50;4.20;;;3.90;;
23617;SDS011;18207;32.078;34.818;2023-03-04T13:03:39;4.32;;;3.92;;
23617;SDS011;18207;32.078;34.818;2023-03-04T13:06:22;3.75;;;3.45;;
23617;SDS011;18207;32.078;34.818;2023-03-04T13:09:06;3.95;;;3.63;;
23617;SDS011;18207;32.078;34.818;2023-03-04T13:11:50;3.90;;;3.60;;
23617;SDS011;18207;32.078;34.818;2023-03-04T13:14:30;4.05;;;3.67;;
23617;SDS011;18207;32.078;34.818;2023-03-04T13:20:18;3.78;;;3.47;;
23617;SDS011;18207;32.078;34.818;2023-03-04T13:23:02;3.88;;;3.50;;
23617;SDS011;18207;32.078;34.818;2023-03-04T13:26:17;3.85;;;3.40;;
23617;SDS011;18207;32.078;34.818;2023-03-04T13:32:03;3.42;;;3.13;;
23617;SDS011;18207;32.078;34.818;2023-03-04T13:34:41;3.67;;;3.38;;
23617;SDS011;18207;32.078;34.818;2023-03-04T13:37:32;4.20;;;3.67;;
23617;SDS011;18207;32.078;34.818;2023-03-04T13:43:23;3.97;;;3.20;;
23617;SDS011;18207;32.078;34.818;2023-03-04T13:45:58;3.47;;;3.17;;
23617;SDS011;18207;32.078;34.818;2023-03-04T13:49:13;4.10;;;3.50;;
23617;SDS011;18207;32.078;34.818;2023-03-04T13:51:50;4.10;;;3.65;;
23617;SDS011;18207;32.078;34.818;2023-03-04T13:54:26;3.92;;;3.53;;
23617;SDS011;18207;32.078;34.818;2023-03-04T13:59:53;4.22;;;3.35;;
23617;SDS011;18207;32.078;34.818;2023-03-04T14:02:25;4.20;;;3.80;;
23617;SDS011;18207;32.078;34.818;2023-03-04T14:05:18;3.95;;;3.65;;
23617;SDS011;18207;32.078;34.818;2023-03-04T14:07:48;4.20;;;3.78;;
23617;SDS011;18207;32.078;34.818;2023-03-04T14:10:22;3.83;;;3.53;;
23617;SDS011;18207;32.078;34.818;2023-03-04T14:12:54;5.10;;;3.83;;
23617;SDS011;18207;32.078;34.818;2023-03-04T14:15:28;4.35;;;3.92;;
23617;SDS011;18207;32.078;34.818;2023-03-04T14:18:02;4.60;;;3.70;;
23617;SDS011;18207;32.078;34.818;2023-03-04T14:20:35;4.35;;;3.67;;
23617;SDS011;18207;32.078;34.818;2023-03-04T14:23:26;5.35;;;3.80;;
23617;SDS011;18207;32.078;34.818;2023-03-04T14:26:09;3.80;;;3.50;;
23617;SDS011;18207;32.078;34.818;2023-03-04T14:28:46;4.07;;;3.67;;
23617;SDS011;18207;32.078;34.818;2023-03-04T14:31:23;4.30;;;3.50;;
23617;SDS011;18207;32.078;34.818;2023-03-04T14:33:57;3.70;;;3.40;;
23617;SDS011;18207;32.078;34.818;2023-03-04T14:36:38;4.35;;;3.70;;
23617;SDS011;18207;32.078;34.818;2023-03-04T14:39:14;3.83;;;3.53;;
23617;SDS011;18207;32.078;34.818;2023-03-04T14:41:49;4.45;;;3.67;;
23617;SDS011;18207;32.078;34.818;2023-03-04T14:44:29;3.92;;;3.63;;
23617;SDS011;18207;32.078;34.818;2023-03-04T14:47:06;3.95;;;3.53;;
23617;SDS011;18207;32.078;34.818;2023-03-04T14:49:46;3.72;;;3.42;;
23617;SDS011;18207;32.078;34.818;2023-03-04T14:52:35;3.92;;;3.63;;
23617;SDS011;18207;32.078;34.818;2023-03-04T14:55:16;3.88;;;3.53;;
23617;SDS011;18207;32.078;34.818;2023-03-04T14:57:53;3.80;;;3.47;;
23617;SDS011;18207;32.078;34.818;2023-03-04T15:00:37;3.40;;;3.17;;
23617;SDS011;18207;32.078;34.818;2023-03-04T15:03:16;3.58;;;3.35;;
23617;SDS011;18207;32.078;34.818;2023-03-04T15:06:05;3.80;;;3.47;;
23617;SDS011;18207;32.078;34.818;2023-03-04T15:08:45;3.80;;;3.47;;
23617;SDS011;18207;32.078;34.818;2023-03-04T15:11:29;3.75;;;3.45;;
23617;SDS011;18207;32.078;34.818;2023-03-04T15:17:23;3.55;;;3.25;;
23617;SDS011;18207;32.078;34.818;2023-03-04T15:20:18;3.67;;;3.38;;
23617;SDS011;18207;32.078;34.818;2023-03-04T15:23:01;3.90;;;3.40;;
23617;SDS011;18207;32.078;34.818;2023-03-04T15:25:35;3.58;;;3.28;;
23617;SDS011;18207;32.078;34.818;2023-03-04T15:28:09;3.85;;;3.40;;
23617;SDS011;18207;32.078;34.818;2023-03-04T15:30:51;4.10;;;3.30;;
23617;SDS011;18207;32.078;34.818;2023-03-04T15:33:21;3.78;;;3.47;;
23617;SDS011;18207;32.078;34.818;2023-03-04T15:35:57;4.25;;;3.65;;
23617;SDS011;18207;32.078;34.818;2023-03-04T15:38:39;3.72;;;3.42;;
23617;SDS011;18207;32.078;34.818;2023-03-04T15:41:14;4.30;;;3.40;;
23617;SDS011;18207;32.078;34.818;2023-03-04T15:43:51;3.60;;;3.40;;
23617;SDS011;18207;32.078;34.818;2023-03-04T15:46:25;4.97;;;3.95;;
23617;SDS011;18207;32.078;34.818;2023-03-04T15:48:55;3.90;;;3.60;;
23617;SDS011;18207;32.078;34.818;2023-03-04T15:51:28;3.95;;;3.65;;
23617;SDS011;18207;32.078;34.818;2023-03-04T15:54:25;5.32;;;4.00;;
23617;SDS011;18207;32.078;34.818;2023-03-04T15:56:58;4.32;;;3.63;;